Liberta — V2CM3 — position and weather

sailwx.info

Track history (hours):
 
Tides and Currents Weather Stations Pressure Air Temp Water Temp Dewpoint Dewpoint Depression Visibility Wind Speed Wind Dir Waves Ship Positions

Liberta

Last reported at 2016-May-28 18:32 UTC. Time now 2016-Jun-27 00:37 UTC.
Position S 29°28' E 031°39'.
Warning: this ship's position is 29 days out of date.

Length 138 m; draft 7.8 m.

Type: Cargo ship. MMSI: 305043000.

Date/timePositionNaut miles runAvg speedWind from/ knotsBaromVisibWave heightAir tempDewpointWater temp
2016-May-28 18:32S 29°28' E 031°39'1111.1
2016-May-28 17:31S 29°35' E 031°29'1111.7
2016-May-28 16:33S 29°42' E 031°18'1211.9
2016-May-28 15:33S 29°49' E 031°08'6 5.8
2016-May-28 14:33S 29°52' E 031°02'0 0.0
2016-May-28 13:33S 29°52' E 031°02'0 0.0
2016-May-28 12:33S 29°52' E 031°02'0 0.0
2016-May-28 11:33S 29°52' E 031°02'0 0.0
2016-May-28 10:33S 29°52' E 031°02'0 0.0
2016-May-28 09:33S 29°52' E 031°02'0 0.0
2016-May-28 08:27S 29°52' E 031°02'0 0.0
2016-May-28 07:33S 29°52' E 031°02'0 0.0
2016-May-28 06:33S 29°52' E 031°02'0 0.0
2016-May-28 05:33S 29°52' E 031°02'0 0.0
2016-May-28 04:33S 29°52' E 031°02'0 0.0
2016-May-28 03:33S 29°52' E 031°02'0 0.0
2016-May-28 02:33S 29°52' E 031°02'0 0.0
2016-May-28 01:33S 29°52' E 031°02'0 0.0
2016-May-28 00:33S 29°52' E 031°02'0 0.0
2016-May-27 23:33S 29°52' E 031°02'0 0.0
2016-May-27 22:33S 29°52' E 031°02'0 0.0
2016-May-27 21:33S 29°52' E 031°02'0 0.0
2016-May-27 20:33S 29°52' E 031°02'0 0.0
2016-May-27 19:33S 29°52' E 031°02'1 1.1
2016-May-27 18:31S 29°53' E 031°03'0 0.0
2016-May-27 17:31S 29°53' E 031°03'0 0.0
2016-May-27 16:31S 29°53' E 031°03'0 0.0
2016-May-27 15:31S 29°53' E 031°03'0 0.0
2016-May-27 14:28S 29°53' E 031°03'0 0.0
2016-May-27 13:28S 29°53' E 031°03'0 0.0
2016-May-27 12:31S 29°53' E 031°03'0 0.0
2016-May-27 11:31S 29°53' E 031°03'0 0.0
2016-May-27 10:31S 29°53' E 031°03'0 0.0
2016-May-27 09:28S 29°53' E 031°03'0 0.0
2016-May-27 08:31S 29°53' E 031°03'0 0.0
2016-May-27 07:31S 29°53' E 031°03'0 0.0
2016-May-27 06:31S 29°53' E 031°03'0 0.0
2016-May-27 05:28S 29°53' E 031°03'0 0.0
2016-May-27 04:31S 29°53' E 031°03'0 0.0
2016-May-27 03:31S 29°53' E 031°03'0 0.0
2016-May-27 02:28S 29°53' E 031°03'0 0.0
2016-May-27 01:28S 29°53' E 031°03'0 0.0
2016-May-27 00:31S 29°53' E 031°03'0 0.0
2016-May-26 23:31S 29°53' E 031°03'0 0.0
2016-May-26 22:31S 29°53' E 031°03'0 0.0
2016-May-26 21:31S 29°53' E 031°03'0 0.0
2016-May-26 20:31S 29°53' E 031°03'0 0.0
2016-May-26 19:31S 29°53' E 031°03'0 0.0
2016-May-26 18:28S 29°53' E 031°03'0 0.0
2016-May-26 17:31S 29°53' E 031°03'0 0.0
2016-May-26 16:28S 29°53' E 031°03'0 0.0
2016-May-26 15:31S 29°53' E 031°03'0 0.0
2016-May-26 14:28S 29°53' E 031°03'0 0.0
2016-May-26 13:28S 29°53' E 031°03'0 0.0
2016-May-26 12:31S 29°53' E 031°03'0 0.0
2016-May-26 11:31S 29°53' E 031°03'0 0.0
2016-May-26 10:28S 29°53' E 031°03'0 0.0
2016-May-26 09:28S 29°53' E 031°03'0 0.0
2016-May-26 08:31S 29°53' E 031°03'0 0.0
2016-May-26 07:31S 29°53' E 031°03'0 0.0
2016-May-26 06:28S 29°53' E 031°03'0 0.0
2016-May-26 05:31S 29°53' E 031°03'0 0.0
2016-May-26 04:31S 29°53' E 031°03'0 0.0
2016-May-26 03:28S 29°53' E 031°03'0 0.0
2016-May-26 02:28S 29°53' E 031°03'0 0.0
2016-May-26 01:31S 29°53' E 031°03'0 0.0
2016-May-26 00:28S 29°53' E 031°03'0 0.0
2016-May-25 23:28S 29°53' E 031°03'0 0.0
2016-May-25 22:28S 29°53' E 031°03'0 0.0
2016-May-25 21:28S 29°53' E 031°03'0 0.0
2016-May-25 20:31S 29°53' E 031°03'0 0.0
2016-May-25 19:28S 29°53' E 031°03'0 0.0
2016-May-25 18:31S 29°53' E 031°03'0 0.0
2016-May-25 17:31S 29°53' E 031°03'0 0.0
2016-May-25 16:31S 29°53' E 031°03'0 0.0
2016-May-25 15:31S 29°53' E 031°03'0 0.0
2016-May-25 14:31S 29°53' E 031°03'4 4.1
2016-May-25 13:33S 29°49' E 031°06'2 2.0
2016-May-25 12:33S 29°48' E 031°07'3 2.8
2016-May-25 11:33S 29°47' E 031°10'0 0.4
2016-May-25 10:31S 29°46' E 031°10'0 0.0
2016-May-25 09:31S 29°46' E 031°10'0 0.0
2016-May-25 08:28S 29°46' E 031°10'0 0.0
2016-May-25 07:31S 29°46' E 031°10'0 0.0
2016-May-25 06:31S 29°46' E 031°10'0 0.0
2016-May-25 05:31S 29°46' E 031°10'0 0.0
2016-May-25 04:31S 29°46' E 031°10'0 0.0
2016-May-25 03:31S 29°46' E 031°10'0 0.0
2016-May-25 02:28S 29°46' E 031°10'0 0.0
2016-May-25 01:28S 29°46' E 031°10'0 0.0
2016-May-25 00:31S 29°46' E 031°10'0 0.0
2016-May-24 23:31S 29°46' E 031°10'0 0.1
2016-May-24 22:31S 29°47' E 031°10'0 0.0
2016-May-24 21:28S 29°47' E 031°10'0 0.0
2016-May-24 20:28S 29°47' E 031°10'0 0.0
2016-May-24 19:31S 29°47' E 031°10'0 0.0
2016-May-24 18:31S 29°47' E 031°10'0 0.0
2016-May-24 17:31S 29°47' E 031°10'0 0.0
2016-May-24 16:31S 29°47' E 031°10'0 0.2
2016-May-24 15:31S 29°47' E 031°10'0 0.0
2016-May-24 14:28S 29°47' E 031°10'0 0.0
2016-May-24 13:31S 29°47' E 031°10'0 0.0
2016-May-24 12:31S 29°47' E 031°10'0 0.0
2016-May-24 11:31S 29°47' E 031°10'0 0.0
2016-May-24 10:28S 29°47' E 031°10'0 0.0
2016-May-24 09:31S 29°47' E 031°10'0 0.1
2016-May-24 08:28S 29°47' E 031°10'0 0.1
2016-May-24 07:28S 29°47' E 031°10'0 0.0
2016-May-24 06:31S 29°47' E 031°10'0 0.0
2016-May-23 20:22S 29°47' E 031°10'0 0.0
2016-May-23 19:31S 29°47' E 031°10'0 0.0
2016-May-23 18:31S 29°47' E 031°10'0 0.0
2016-May-23 17:31S 29°47' E 031°10'0 0.0
2016-May-23 16:31S 29°47' E 031°10'0 0.0
2016-May-23 15:31S 29°47' E 031°10'0 0.0
2016-May-23 14:31S 29°47' E 031°10'0 0.0
2016-May-23 13:31S 29°47' E 031°10'0 0.0
2016-May-23 12:31S 29°47' E 031°10'0 0.0
2016-May-23 11:28S 29°47' E 031°10'0 0.0
2016-May-23 10:31S 29°47' E 031°10'0 0.0
2016-May-23 09:31S 29°47' E 031°10'0 0.0
2016-May-23 08:31S 29°47' E 031°10'0 0.0
2016-May-23 07:31S 29°47' E 031°10'0 0.0
2016-May-23 06:31S 29°47' E 031°10'0 0.0
2016-May-23 05:31S 29°47' E 031°10'  
2016-May-19 01:32S 34°22' E 018°11'18 8.3
2016-May-18 23:21S 34°05' E 018°03'910.5
2016-May-18 22:31S 33°57' E 018°01'  
Track history (hours):
 
Tides and Currents Weather Stations Pressure Air Temp Water Temp Dewpoint Dewpoint Depression Visibility Wind Speed Wind Dir Waves Ship Positions

Liberta

Last reported at 2016-May-28 18:32 UTC. Time now 2016-Jun-27 00:37 UTC.
Position S 29°28' E 031°39'.
Warning: this ship's position is 29 days out of date.

Length 138 m; draft 7.8 m.

Type: Cargo ship. MMSI: 305043000.

Date/timePositionNaut miles runAvg speedWind from/ knotsBaromVisibWave heightAir tempDewpointWater temp
2016-May-28 18:32S 29°28' E 031°39'1111.1
2016-May-28 17:31S 29°35' E 031°29'1111.7
2016-May-28 16:33S 29°42' E 031°18'1211.9
2016-May-28 15:33S 29°49' E 031°08'6 5.8
2016-May-28 14:33S 29°52' E 031°02'0 0.0
2016-May-28 13:33S 29°52' E 031°02'0 0.0
2016-May-28 12:33S 29°52' E 031°02'0 0.0
2016-May-28 11:33S 29°52' E 031°02'0 0.0
2016-May-28 10:33S 29°52' E 031°02'0 0.0
2016-May-28 09:33S 29°52' E 031°02'0 0.0
2016-May-28 08:27S 29°52' E 031°02'0 0.0
2016-May-28 07:33S 29°52' E 031°02'0 0.0
2016-May-28 06:33S 29°52' E 031°02'0 0.0
2016-May-28 05:33S 29°52' E 031°02'0 0.0
2016-May-28 04:33S 29°52' E 031°02'0 0.0
2016-May-28 03:33S 29°52' E 031°02'0 0.0
2016-May-28 02:33S 29°52' E 031°02'0 0.0
2016-May-28 01:33S 29°52' E 031°02'0 0.0
2016-May-28 00:33S 29°52' E 031°02'0 0.0
2016-May-27 23:33S 29°52' E 031°02'0 0.0
2016-May-27 22:33S 29°52' E 031°02'0 0.0
2016-May-27 21:33S 29°52' E 031°02'0 0.0
2016-May-27 20:33S 29°52' E 031°02'0 0.0
2016-May-27 19:33S 29°52' E 031°02'1 1.1
2016-May-27 18:31S 29°53' E 031°03'0 0.0
2016-May-27 17:31S 29°53' E 031°03'0 0.0
2016-May-27 16:31S 29°53' E 031°03'0 0.0
2016-May-27 15:31S 29°53' E 031°03'0 0.0
2016-May-27 14:28S 29°53' E 031°03'0 0.0
2016-May-27 13:28S 29°53' E 031°03'0 0.0
2016-May-27 12:31S 29°53' E 031°03'0 0.0
2016-May-27 11:31S 29°53' E 031°03'0 0.0
2016-May-27 10:31S 29°53' E 031°03'0 0.0
2016-May-27 09:28S 29°53' E 031°03'0 0.0
2016-May-27 08:31S 29°53' E 031°03'0 0.0
2016-May-27 07:31S 29°53' E 031°03'0 0.0
2016-May-27 06:31S 29°53' E 031°03'0 0.0
2016-May-27 05:28S 29°53' E 031°03'0 0.0
2016-May-27 04:31S 29°53' E 031°03'0 0.0
2016-May-27 03:31S 29°53' E 031°03'0 0.0
2016-May-27 02:28S 29°53' E 031°03'0 0.0
2016-May-27 01:28S 29°53' E 031°03'0 0.0
2016-May-27 00:31S 29°53' E 031°03'0 0.0
2016-May-26 23:31S 29°53' E 031°03'0 0.0
2016-May-26 22:31S 29°53' E 031°03'0 0.0
2016-May-26 21:31S 29°53' E 031°03'0 0.0
2016-May-26 20:31S 29°53' E 031°03'0 0.0
2016-May-26 19:31S 29°53' E 031°03'0 0.0
2016-May-26 18:28S 29°53' E 031°03'0 0.0
2016-May-26 17:31S 29°53' E 031°03'0 0.0
2016-May-26 16:28S 29°53' E 031°03'0 0.0
2016-May-26 15:31S 29°53' E 031°03'0 0.0
2016-May-26 14:28S 29°53' E 031°03'0 0.0
2016-May-26 13:28S 29°53' E 031°03'0 0.0
2016-May-26 12:31S 29°53' E 031°03'0 0.0
2016-May-26 11:31S 29°53' E 031°03'0 0.0
2016-May-26 10:28S 29°53' E 031°03'0 0.0
2016-May-26 09:28S 29°53' E 031°03'0 0.0
2016-May-26 08:31S 29°53' E 031°03'0 0.0
2016-May-26 07:31S 29°53' E 031°03'0 0.0
2016-May-26 06:28S 29°53' E 031°03'0 0.0
2016-May-26 05:31S 29°53' E 031°03'0 0.0
2016-May-26 04:31S 29°53' E 031°03'0 0.0
2016-May-26 03:28S 29°53' E 031°03'0 0.0
2016-May-26 02:28S 29°53' E 031°03'0 0.0
2016-May-26 01:31S 29°53' E 031°03'0 0.0
2016-May-26 00:28S 29°53' E 031°03'0 0.0
2016-May-25 23:28S 29°53' E 031°03'0 0.0
2016-May-25 22:28S 29°53' E 031°03'0 0.0
2016-May-25 21:28S 29°53' E 031°03'0 0.0
2016-May-25 20:31S 29°53' E 031°03'0 0.0
2016-May-25 19:28S 29°53' E 031°03'0 0.0
2016-May-25 18:31S 29°53' E 031°03'0 0.0
2016-May-25 17:31S 29°53' E 031°03'0 0.0
2016-May-25 16:31S 29°53' E 031°03'0 0.0
2016-May-25 15:31S 29°53' E 031°03'0 0.0
2016-May-25 14:31S 29°53' E 031°03'4 4.1
2016-May-25 13:33S 29°49' E 031°06'2 2.0
2016-May-25 12:33S 29°48' E 031°07'3 2.8
2016-May-25 11:33S 29°47' E 031°10'0 0.4
2016-May-25 10:31S 29°46' E 031°10'0 0.0
2016-May-25 09:31S 29°46' E 031°10'0 0.0
2016-May-25 08:28S 29°46' E 031°10'0 0.0
2016-May-25 07:31S 29°46' E 031°10'0 0.0
2016-May-25 06:31S 29°46' E 031°10'0 0.0
2016-May-25 05:31S 29°46' E 031°10'0 0.0
2016-May-25 04:31S 29°46' E 031°10'0 0.0
2016-May-25 03:31S 29°46' E 031°10'0 0.0
2016-May-25 02:28S 29°46' E 031°10'0 0.0
2016-May-25 01:28S 29°46' E 031°10'0 0.0
2016-May-25 00:31S 29°46' E 031°10'0 0.0
2016-May-24 23:31S 29°46' E 031°10'0 0.1
2016-May-24 22:31S 29°47' E 031°10'0 0.0
2016-May-24 21:28S 29°47' E 031°10'0 0.0
2016-May-24 20:28S 29°47' E 031°10'0 0.0
2016-May-24 19:31S 29°47' E 031°10'0 0.0
2016-May-24 18:31S 29°47' E 031°10'0 0.0
2016-May-24 17:31S 29°47' E 031°10'0 0.0
2016-May-24 16:31S 29°47' E 031°10'0 0.2
2016-May-24 15:31S 29°47' E 031°10'0 0.0
2016-May-24 14:28S 29°47' E 031°10'0 0.0
2016-May-24 13:31S 29°47' E 031°10'0 0.0
2016-May-24 12:31S 29°47' E 031°10'0 0.0
2016-May-24 11:31S 29°47' E 031°10'0 0.0
2016-May-24 10:28S 29°47' E 031°10'0 0.0
2016-May-24 09:31S 29°47' E 031°10'0 0.1
2016-May-24 08:28S 29°47' E 031°10'0 0.1
2016-May-24 07:28S 29°47' E 031°10'0 0.0
2016-May-24 06:31S 29°47' E 031°10'0 0.0
2016-May-23 20:22S 29°47' E 031°10'0 0.0
2016-May-23 19:31S 29°47' E 031°10'0 0.0
2016-May-23 18:31S 29°47' E 031°10'0 0.0
2016-May-23 17:31S 29°47' E 031°10'0 0.0
2016-May-23 16:31S 29°47' E 031°10'0 0.0
2016-May-23 15:31S 29°47' E 031°10'0 0.0
2016-May-23 14:31S 29°47' E 031°10'0 0.0
2016-May-23 13:31S 29°47' E 031°10'0 0.0
2016-May-23 12:31S 29°47' E 031°10'0 0.0
2016-May-23 11:28S 29°47' E 031°10'0 0.0
2016-May-23 10:31S 29°47' E 031°10'0 0.0
2016-May-23 09:31S 29°47' E 031°10'0 0.0
2016-May-23 08:31S 29°47' E 031°10'0 0.0
2016-May-23 07:31S 29°47' E 031°10'0 0.0
2016-May-23 06:31S 29°47' E 031°10'0 0.0
2016-May-23 05:31S 29°47' E 031°10'  
2016-May-19 01:32S 34°22' E 018°11'18 8.3
2016-May-18 23:21S 34°05' E 018°03'910.5
2016-May-18 22:31S 33°57' E 018°01'  

Dump ship's entire track history